Time;durP1;ratioP1;P1;durP2;ratioP2;P2;SDS_P1;SDS_P2;PMS_P1;PMS_P2;Temp;Humidity;BMP_temperature;BMP_pressure;BME280_temperature;BME280_humidity;BME280_pressure;Samples;Min_cycle;Max_cycle;Signal;HPM_P1;HPM_P2
2023/04/12 00:00:43;;;;;;;13.33;10.80;;;;;;;;;;4355068;32;319185;-80
2023/04/12 00:03:11;;;;;;;13.80;10.83;;;;;;;;;;4346566;32;318719;-76
2023/04/12 00:05:39;;;;;;;13.73;11.10;;;;;;;;;;4355115;32;319031;-80
2023/04/12 00:08:09;;;;;;;15.70;11.17;;;;;;;;;;4343702;32;318882;-75
2023/04/12 00:10:37;;;;;;;19.93;10.97;;;;;;;;;;4356473;32;318906;-79
2023/04/12 00:13:06;;;;;;;11.83;10.53;;;;;;;;;;4344496;32;318823;-76
2023/04/12 00:15:33;;;;;;;15.77;11.40;;;;;;;;;;4356572;32;318746;-76
2023/04/12 00:18:01;;;;;;;14.87;11.47;;;;;;;;;;4347145;32;318787;-78
2023/04/12 00:20:28;;;;;;;19.47;12.00;;;;;;;;;;4356722;32;318838;-77
2023/04/12 00:22:56;;;;;;;12.97;11.40;;;;;;;;;;4356953;32;318771;-80
2023/04/12 00:25:23;;;;;;;18.47;12.40;;;;;;;;;;4342891;32;418178;-78
2023/04/12 00:27:51;;;;;;;16.00;12.43;;;;;;;;;;4356350;32;319606;-79
2023/04/12 00:30:20;;;;;;;15.13;12.40;;;;;;;;;;4344776;32;319335;-76
2023/04/12 00:32:48;;;;;;;15.80;12.37;;;;;;;;;;4356268;32;318755;-78
2023/04/12 00:35:15;;;;;;;13.10;11.60;;;;;;;;;;4344665;32;318888;-76
2023/04/12 00:37:43;;;;;;;14.80;12.60;;;;;;;;;;4356941;32;318819;-76
2023/04/12 00:40:12;;;;;;;16.37;11.70;;;;;;;;;;4345186;32;318627;-80
2023/04/12 00:42:39;;;;;;;16.73;11.83;;;;;;;;;;4355936;32;318672;-79
2023/04/12 00:45:08;;;;;;;13.83;12.00;;;;;;;;;;4346374;32;318804;-81
2023/04/12 00:47:37;;;;;;;15.07;11.33;;;;;;;;;;4354085;32;318969;-77
2023/04/12 00:50:06;;;;;;;15.93;11.90;;;;;;;;;;4344063;32;318731;-81
2023/04/12 00:52:34;;;;;;;15.70;11.53;;;;;;;;;;4355787;32;318838;-76
2023/04/12 00:55:03;;;;;;;16.93;12.93;;;;;;;;;;4345677;32;318887;-78
2023/04/12 00:57:34;;;;;;;16.13;11.60;;;;;;;;;;4354667;32;318626;-78
2023/04/12 01:00:02;;;;;;;14.93;11.33;;;;;;;;;;4345493;32;318682;-80
2023/04/12 01:02:30;;;;;;;17.20;12.73;;;;;;;;;;4355107;32;318774;-79
2023/04/12 01:05:00;;;;;;;15.43;11.87;;;;;;;;;;4355835;32;318829;-79
2023/04/12 01:07:37;;;;;;;13.43;12.03;;;;;;;;;;4330698;32;418596;-78
2023/04/12 01:10:17;;;;;;;14.23;11.77;;;;;;;;;;4348234;32;318431;-80
2023/04/12 01:12:54;;;;;;;18.83;12.33;;;;;;;;;;4355814;32;318636;-80
2023/04/12 01:15:23;;;;;;;14.57;11.50;;;;;;;;;;4345517;32;318851;-79
2023/04/12 01:17:57;;;;;;;17.43;11.87;;;;;;;;;;4356711;32;318723;-80
2023/04/12 01:20:36;;;;;;;13.23;11.80;;;;;;;;;;4342790;32;418392;-79
2023/04/12 01:23:18;;;;;;;15.17;10.83;;;;;;;;;;4342510;32;322644;-76
2023/04/12 01:26:03;;;;;;;13.40;10.63;;;;;;;;;;4356665;32;318871;-77
2023/04/12 01:28:36;;;;;;;14.93;11.90;;;;;;;;;;4342630;32;418952;-76
2023/04/12 01:31:05;;;;;;;15.83;11.63;;;;;;;;;;4342994;32;319223;-76
2023/04/12 01:33:37;;;;;;;12.27;10.97;;;;;;;;;;4354058;32;319043;-79
2023/04/12 01:36:12;;;;;;;12.77;11.27;;;;;;;;;;4323289;32;319077;-80
2023/04/12 01:38:42;;;;;;;14.73;11.20;;;;;;;;;;4351170;32;318793;-77
2023/04/12 01:41:18;;;;;;;12.50;10.23;;;;;;;;;;4332654;32;318612;-76
2023/04/12 01:43:52;;;;;;;16.23;12.43;;;;;;;;;;4344733;32;317841;-79
2023/04/12 01:46:24;;;;;;;15.37;11.33;;;;;;;;;;4345085;32;319045;-82
2023/04/12 01:48:54;;;;;;;11.97;10.17;;;;;;;;;;4356859;32;318836;-78
2023/04/12 01:51:35;;;;;;;14.13;12.50;;;;;;;;;;4344752;32;318929;-80
2023/04/12 01:54:10;;;;;;;20.73;12.33;;;;;;;;;;4342586;32;319034;-79
2023/04/12 01:56:39;;;;;;;18.73;13.80;;;;;;;;;;4353033;32;341624;-78
2023/04/12 01:59:11;;;;;;;16.83;13.43;;;;;;;;;;4343137;32;319084;-77
2023/04/12 02:01:39;;;;;;;14.60;11.93;;;;;;;;;;4351735;32;318965;-78
2023/04/12 02:04:08;;;;;;;17.37;12.00;;;;;;;;;;4342880;32;318760;-77
2023/04/12 02:06:36;;;;;;;14.23;11.47;;;;;;;;;;4353442;32;318958;-77
2023/04/12 02:09:05;;;;;;;18.87;11.67;;;;;;;;;;4343469;32;318753;-75
2023/04/12 02:11:32;;;;;;;15.17;10.37;;;;;;;;;;4355213;32;318798;-80
2023/04/12 02:13:59;;;;;;;12.57;11.27;;;;;;;;;;4343946;32;318663;-80
2023/04/12 02:16:31;;;;;;;13.43;10.80;;;;;;;;;;4354406;32;318837;-79
2023/04/12 02:19:20;;;;;;;15.27;11.80;;;;;;;;;;4355697;32;318575;-79
2023/04/12 02:21:50;;;;;;;18.67;11.33;;;;;;;;;;4319209;32;417883;-79
2023/04/12 02:24:17;;;;;;;16.13;11.70;;;;;;;;;;4345248;32;318736;-79
2023/04/12 02:26:44;;;;;;;11.13;10.00;;;;;;;;;;4353906;32;318570;-80
2023/04/12 02:29:12;;;;;;;13.27;11.53;;;;;;;;;;4345251;32;318582;-78
2023/04/12 02:31:41;;;;;;;14.80;10.67;;;;;;;;;;4354524;32;318892;-78
2023/04/12 02:34:12;;;;;;;13.47;10.27;;;;;;;;;;4343353;32;318730;-80
2023/04/12 02:36:39;;;;;;;15.53;10.50;;;;;;;;;;4354694;32;318835;-81
2023/04/12 02:39:07;;;;;;;17.67;11.67;;;;;;;;;;4343833;32;318761;-81
2023/04/12 02:41:35;;;;;;;11.60;10.37;;;;;;;;;;4354444;32;318925;-81
2023/04/12 02:44:02;;;;;;;13.13;10.40;;;;;;;;;;4341387;32;349485;-80
2023/04/12 02:46:30;;;;;;;12.77;10.03;;;;;;;;;;4352949;32;318676;-82
2023/04/12 02:48:59;;;;;;;13.30;11.43;;;;;;;;;;4354908;32;318631;-81
2023/04/12 02:51:26;;;;;;;16.63;10.23;;;;;;;;;;4340730;32;418362;-81
2023/04/12 02:53:54;;;;;;;13.40;11.30;;;;;;;;;;4355010;32;318680;-81
2023/04/12 02:56:23;;;;;;;15.40;11.57;;;;;;;;;;4336247;32;318822;-81
2023/04/12 02:58:50;;;;;;;15.93;14.07;;;;;;;;;;4342769;32;318905;-81
2023/04/12 03:01:18;;;;;;;19.10;15.63;;;;;;;;;;4344461;32;318676;-80
2023/04/12 03:03:45;;;;;;;14.20;11.57;;;;;;;;;;4354725;32;318525;-80
2023/04/12 03:06:14;;;;;;;13.33;10.90;;;;;;;;;;4345074;32;318754;-81
2023/04/12 03:08:42;;;;;;;17.50;15.30;;;;;;;;;;4353586;32;318763;-80
2023/04/12 03:11:09;;;;;;;19.80;15.73;;;;;;;;;;4350784;32;318915;-79
2023/04/12 03:13:37;;;;;;;22.93;17.97;;;;;;;;;;4369299;32;318501;-77
2023/04/12 03:16:22;;;;;;;15.93;13.33;;;;;;;;;;4356122;32;340136;-78
2023/04/12 03:18:50;;;;;;;14.20;12.43;;;;;;;;;;4370357;32;318125;-78
2023/04/12 03:21:19;;;;;;;14.97;12.43;;;;;;;;;;4356627;32;318182;-80
2023/04/12 03:23:47;;;;;;;16.50;13.27;;;;;;;;;;4356735;32;318576;-80
2023/04/12 03:26:19;;;;;;;17.10;12.73;;;;;;;;;;4343836;32;318894;-80
2023/04/12 03:28:47;;;;;;;16.40;11.33;;;;;;;;;;4337677;32;319077;-81
2023/04/12 03:31:20;;;;;;;13.00;11.37;;;;;;;;;;4343814;32;318701;-80
2023/04/12 03:33:47;;;;;;;13.07;11.30;;;;;;;;;;4356610;32;318495;-78
2023/04/12 03:36:15;;;;;;;15.33;11.90;;;;;;;;;;4346758;32;318853;-77
2023/04/12 03:38:44;;;;;;;15.87;12.40;;;;;;;;;;4352808;32;353202;-80
2023/04/12 03:41:12;;;;;;;13.23;11.83;;;;;;;;;;4344463;32;318813;-80
2023/04/12 03:43:44;;;;;;;16.67;11.67;;;;;;;;;;4353463;32;318693;-78
2023/04/12 03:46:24;;;;;;;14.27;12.60;;;;;;;;;;4334367;32;318140;-78
2023/04/12 03:48:52;;;;;;;13.10;11.70;;;;;;;;;;4346168;32;317849;-77
2023/04/12 03:51:25;;;;;;;12.73;11.43;;;;;;;;;;4340025;32;329383;-78
2023/04/12 03:53:56;;;;;;;15.60;11.10;;;;;;;;;;4349291;32;317622;-78
2023/04/12 03:56:29;;;;;;;12.43;10.77;;;;;;;;;;4343689;32;318862;-76
2023/04/12 03:58:58;;;;;;;15.47;12.97;;;;;;;;;;4353324;32;318512;-76
2023/04/12 04:01:27;;;;;;;17.10;14.00;;;;;;;;;;4336453;32;417812;-78
2023/04/12 04:03:54;;;;;;;19.67;15.70;;;;;;;;;;4352362;32;349410;-79
2023/04/12 04:06:23;;;;;;;21.57;11.70;;;;;;;;;;4339764;32;318817;-76
2023/04/12 04:08:55;;;;;;;16.57;11.53;;;;;;;;;;4353614;32;317927;-76
2023/04/12 04:11:25;;;;;;;16.03;9.53;;;;;;;;;;4341955;32;318770;-76
2023/04/12 04:13:54;;;;;;;16.93;10.63;;;;;;;;;;4351434;32;318118;-79
2023/04/12 04:16:21;;;;;;;13.13;11.80;;;;;;;;;;4340966;32;318767;-76
2023/04/12 04:18:50;;;;;;;20.10;13.93;;;;;;;;;;4350028;32;319109;-77
2023/04/12 04:21:18;;;;;;;18.17;12.47;;;;;;;;;;4341317;32;318864;-78
2023/04/12 04:23:47;;;;;;;19.23;12.03;;;;;;;;;;4353110;32;317764;-78
2023/04/12 04:26:15;;;;;;;18.83;11.17;;;;;;;;;;4342194;32;317841;-77
2023/04/12 04:28:49;;;;;;;14.33;10.13;;;;;;;;;;4350456;32;318623;-80
2023/04/12 04:31:16;;;;;;;12.00;9.70;;;;;;;;;;4341351;32;319042;-77
2023/04/12 04:33:45;;;;;;;12.90;9.10;;;;;;;;;;4351649;32;317875;-77
2023/04/12 04:36:16;;;;;;;12.93;9.43;;;;;;;;;;4339207;32;317679;-80
2023/04/12 04:38:49;;;;;;;12.27;7.73;;;;;;;;;;4353125;32;317912;-77
2023/04/12 04:41:21;;;;;;;9.13;7.33;;;;;;;;;;4344547;32;316976;-80
2023/04/12 04:43:53;;;;;;;14.57;9.27;;;;;;;;;;4353692;32;334726;-77
2023/04/12 04:46:21;;;;;;;9.60;7.43;;;;;;;;;;4343243;32;317697;-77
2023/04/12 04:48:54;;;;;;;12.53;10.57;;;;;;;;;;4353489;32;316685;-76
2023/04/12 04:51:23;;;;;;;14.37;7.37;;;;;;;;;;4343449;32;340891;-78
2023/04/12 04:53:51;;;;;;;9.93;8.23;;;;;;;;;;4341968;32;324171;-77
2023/04/12 04:56:18;;;;;;;10.17;8.37;;;;;;;;;;4337429;32;316798;-77
2023/04/12 04:58:46;;;;;;;18.70;7.20;;;;;;;;;;4354926;32;318369;-79
2023/04/12 05:01:15;;;;;;;8.20;6.83;;;;;;;;;;4340482;32;317454;-77
2023/04/12 05:03:43;;;;;;;8.20;6.80;;;;;;;;;;4353066;32;315547;-79
2023/04/12 05:06:12;;;;;;;10.80;7.10;;;;;;;;;;4341561;32;316516;-76
2023/04/12 05:08:40;;;;;;;6.47;5.43;;;;;;;;;;4354617;32;316741;-78
2023/04/12 05:11:09;;;;;;;7.03;5.73;;;;;;;;;;4345350;32;316809;-78
2023/04/12 05:13:38;;;;;;;8.67;5.20;;;;;;;;;;4351968;32;316467;-77
2023/04/12 05:16:08;;;;;;;13.13;6.13;;;;;;;;;;4343356;32;346110;-77
2023/04/12 05:18:37;;;;;;;11.97;7.23;;;;;;;;;;4354323;32;317766;-79
2023/04/12 05:21:06;;;;;;;9.07;7.30;;;;;;;;;;4342496;32;317700;-78
2023/04/12 05:23:36;;;;;;;12.13;5.90;;;;;;;;;;4351973;32;315388;-77
2023/04/12 05:26:04;;;;;;;10.80;6.67;;;;;;;;;;4342785;32;316719;-77
2023/04/12 05:28:32;;;;;;;12.87;7.57;;;;;;;;;;4355236;32;317660;-78
2023/04/12 05:31:01;;;;;;;15.20;10.43;;;;;;;;;;4345345;32;316610;-79
2023/04/12 05:33:28;;;;;;;11.23;8.93;;;;;;;;;;4353464;32;318042;-79
2023/04/12 05:35:58;;;;;;;13.00;8.23;;;;;;;;;;4334062;32;316611;-75
2023/04/12 05:38:27;;;;;;;7.63;5.13;;;;;;;;;;4337815;32;416621;-76
2023/04/12 05:40:55;;;;;;;7.40;5.40;;;;;;;;;;4351875;32;316698;-79
2023/04/12 05:43:24;;;;;;;9.00;6.10;;;;;;;;;;4345607;32;316705;-79
2023/04/12 05:45:52;;;;;;;7.90;4.73;;;;;;;;;;4351978;32;316615;-78
2023/04/12 05:48:21;;;;;;;7.32;5.85;;;;;;;;;;4343490;32;315720;-78
2023/04/12 05:50:52;;;;;;;21.13;9.80;;;;;;;;;;4354681;32;332956;-79
2023/04/12 05:53:22;;;;;;;10.23;7.00;;;;;;;;;;4342249;32;317879;-78
2023/04/12 05:55:53;;;;;;;12.40;7.20;;;;;;;;;;4352931;32;317928;-77
2023/04/12 05:58:23;;;;;;;7.37;4.07;;;;;;;;;;4341459;32;317853;-77
2023/04/12 06:00:53;;;;;;;7.40;3.87;;;;;;;;;;4339146;32;315541;-78
2023/04/12 06:03:23;;;;;;;4.30;2.73;;;;;;;;;;4333097;32;315722;-79
2023/04/12 06:06:05;;;;;;;4.83;3.30;;;;;;;;;;4352555;32;315623;-77
2023/04/12 06:08:37;;;;;;;4.60;3.30;;;;;;;;;;4336512;32;416171;-77
2023/04/12 06:11:06;;;;;;;9.03;5.97;;;;;;;;;;4341445;32;316829;-76
2023/04/12 06:13:34;;;;;;;3.67;3.37;;;;;;;;;;4351906;32;317004;-77
2023/04/12 06:16:03;;;;;;;8.93;5.23;;;;;;;;;;4341611;32;316540;-79
2023/04/12 06:18:44;;;;;;;6.37;3.60;;;;;;;;;;4333467;32;331493;-80
2023/04/12 06:21:14;;;;;;;7.90;4.43;;;;;;;;;;4321454;32;315638;-80
2023/04/12 06:23:44;;;;;;;8.43;5.83;;;;;;;;;;4351425;32;315535;-80
2023/04/12 06:26:13;;;;;;;11.47;5.40;;;;;;;;;;4344103;32;316765;-78
2023/04/12 06:28:43;;;;;;;7.77;6.27;;;;;;;;;;4352657;32;316513;-79
2023/04/12 06:31:12;;;;;;;8.10;4.90;;;;;;;;;;4344123;32;316825;-77
2023/04/12 06:33:40;;;;;;;5.70;3.80;;;;;;;;;;4352309;32;316893;-81
2023/04/12 06:36:10;;;;;;;4.20;3.47;;;;;;;;;;4341616;32;316699;-77
2023/04/12 06:38:38;;;;;;;4.93;3.17;;;;;;;;;;4354140;32;316993;-77
2023/04/12 06:41:08;;;;;;;4.20;3.60;;;;;;;;;;4343356;32;316653;-74
2023/04/12 06:43:36;;;;;;;6.23;2.87;;;;;;;;;;4353665;32;315755;-80
2023/04/12 06:46:03;;;;;;;3.20;2.40;;;;;;;;;;4344550;32;316709;-76
2023/04/12 06:48:31;;;;;;;6.73;2.17;;;;;;;;;;4354352;32;316838;-76
2023/04/12 06:50:59;;;;;;;5.17;3.00;;;;;;;;;;4354989;32;316668;-76
2023/04/12 06:53:26;;;;;;;3.20;2.57;;;;;;;;;;4341512;32;416020;-76
2023/04/12 06:55:54;;;;;;;2.97;2.13;;;;;;;;;;4352439;32;316634;-79
2023/04/12 06:58:23;;;;;;;3.77;2.03;;;;;;;;;;4343704;32;316673;-77
2023/04/12 07:00:51;;;;;;;3.13;2.23;;;;;;;;;;4353934;32;316840;-77
2023/04/12 07:03:18;;;;;;;7.23;2.07;;;;;;;;;;4341513;32;315800;-77
2023/04/12 07:05:46;;;;;;;3.87;1.50;;;;;;;;;;4355242;32;316726;-81
2023/04/12 07:08:13;;;;;;;1.93;1.50;;;;;;;;;;4342854;32;317161;-80
2023/04/12 07:10:41;;;;;;;8.57;2.93;;;;;;;;;;4354917;32;316550;-81
2023/04/12 07:13:09;;;;;;;6.27;3.87;;;;;;;;;;4349753;32;316747;-78
2023/04/12 07:15:39;;;;;;;12.47;5.17;;;;;;;;;;4368687;32;316553;-75
2023/04/12 07:18:07;;;;;;;9.57;2.90;;;;;;;;;;4354168;32;317223;-80
2023/04/12 07:20:34;;;;;;;6.07;3.67;;;;;;;;;;4363551;32;316802;-75
2023/04/12 07:23:03;;;;;;;7.63;4.00;;;;;;;;;;4346357;32;316589;-82
2023/04/12 07:25:31;;;;;;;23.87;15.17;;;;;;;;;;4355864;32;349405;-81
2023/04/12 07:31:10;;;;;;;4.80;3.03;;;;;;;;;;4320502;32;388486;-80
2023/04/12 07:33:39;;;;;;;5.20;3.23;;;;;;;;;;4344904;32;323754;-81
2023/04/12 07:36:09;;;;;;;7.83;4.33;;;;;;;;;;4329859;32;316554;-79
2023/04/12 07:38:36;;;;;;;15.63;7.73;;;;;;;;;;4358098;32;316894;-80
2023/04/12 07:41:04;;;;;;;14.77;7.87;;;;;;;;;;4342882;32;317884;-82
2023/04/12 07:43:32;;;;;;;7.37;4.30;;;;;;;;;;4355755;32;356009;-80
2023/04/12 07:46:03;;;;;;;5.73;2.70;;;;;;;;;;4342660;32;330871;-80
2023/04/12 07:48:33;;;;;;;5.43;3.30;;;;;;;;;;4353886;32;316790;-79
2023/04/12 07:51:02;;;;;;;7.53;4.73;;;;;;;;;;4343342;32;316404;-80
2023/04/12 07:53:31;;;;;;;9.53;4.77;;;;;;;;;;4354901;32;316397;-79
2023/04/12 07:55:59;;;;;;;12.67;4.80;;;;;;;;;;4353192;32;316647;-79
2023/04/12 07:58:27;;;;;;;12.43;6.60;;;;;;;;;;4342634;32;417012;-80
2023/04/12 08:00:56;;;;;;;9.43;4.87;;;;;;;;;;4355253;32;317870;-80
2023/04/12 08:03:24;;;;;;;7.63;4.90;;;;;;;;;;4342020;32;346757;-80
2023/04/12 08:05:53;;;;;;;6.93;4.70;;;;;;;;;;4352743;32;316603;-80
2023/04/12 08:08:21;;;;;;;9.60;4.63;;;;;;;;;;4338959;32;316790;-81
2023/04/12 08:10:51;;;;;;;7.60;3.53;;;;;;;;;;4350893;32;316895;-80
2023/04/12 08:13:21;;;;;;;9.27;5.33;;;;;;;;;;4333580;32;316731;-81
2023/04/12 08:15:51;;;;;;;6.27;3.63;;;;;;;;;;4345537;32;317098;-82
2023/04/12 08:18:23;;;;;;;2.87;2.10;;;;;;;;;;4343521;32;316956;-82
2023/04/12 08:20:55;;;;;;;3.20;2.13;;;;;;;;;;4355336;32;317149;-79
2023/04/12 08:23:24;;;;;;;6.07;2.73;;;;;;;;;;4336014;32;317173;-79
2023/04/12 08:25:58;;;;;;;2.73;2.43;;;;;;;;;;4335626;32;316674;-81
2023/04/12 08:28:31;;;;;;;3.43;1.90;;;;;;;;;;4342043;32;415968;-81
2023/04/12 08:30:59;;;;;;;8.70;4.20;;;;;;;;;;4335494;32;315976;-81
2023/04/12 08:33:28;;;;;;;4.77;2.67;;;;;;;;;;4356590;32;338414;-83
2023/04/12 08:35:59;;;;;;;2.63;2.13;;;;;;;;;;4355400;32;315536;-82
2023/04/12 08:38:27;;;;;;;8.03;2.67;;;;;;;;;;4341555;32;416429;-80
2023/04/12 08:40:56;;;;;;;3.30;1.70;;;;;;;;;;4354990;32;316932;-79
2023/04/12 08:43:27;;;;;;;4.33;3.13;;;;;;;;;;4347850;32;317575;-82
2023/04/12 08:45:57;;;;;;;2.97;2.13;;;;;;;;;;4357320;32;316681;-78
2023/04/12 08:48:26;;;;;;;2.90;1.80;;;;;;;;;;4343668;32;419272;-79
2023/04/12 08:50:55;;;;;;;4.43;2.50;;;;;;;;;;4356114;32;316909;-79
2023/04/12 08:53:24;;;;;;;3.07;2.77;;;;;;;;;;4345777;32;316821;-78
2023/04/12 08:55:52;;;;;;;3.73;2.50;;;;;;;;;;4355341;32;317040;-80
2023/04/12 08:58:21;;;;;;;4.15;2.30;;;;;;;;;;4346239;32;316864;-78
2023/04/12 09:00:49;;;;;;;5.83;2.13;;;;;;;;;;4355118;32;316821;-79
2023/04/12 09:03:16;;;;;;;3.87;2.30;;;;;;;;;;4343656;32;317202;-82
2023/04/12 09:05:44;;;;;;;3.33;2.13;;;;;;;;;;4341804;32;356855;-79
2023/04/12 09:08:12;;;;;;;5.20;2.00;;;;;;;;;;4345355;32;316745;-81
2023/04/12 09:10:41;;;;;;;3.37;2.30;;;;;;;;;;4355632;32;317142;-80
2023/04/12 09:13:09;;;;;;;2.33;1.70;;;;;;;;;;4348605;32;316806;-79
2023/04/12 09:15:49;;;;;;;2.43;1.83;;;;;;;;;;4357226;32;316663;-78
2023/04/12 09:18:19;;;;;;;4.30;3.00;;;;;;;;;;4345162;32;316769;-82
2023/04/12 09:20:46;;;;;;;5.90;2.73;;;;;;;;;;4354945;32;317216;-82
2023/04/12 09:23:19;;;;;;;6.50;4.30;;;;;;;;;;4345543;32;316584;-82
2023/04/12 09:25:51;;;;;;;5.40;3.87;;;;;;;;;;4357261;32;316744;-82
2023/04/12 09:28:24;;;;;;;5.70;2.60;;;;;;;;;;4347014;32;317265;-82
2023/04/12 09:30:53;;;;;;;4.18;3.30;;;;;;;;;;4356743;32;317077;-81
2023/04/12 09:33:27;;;;;;;5.67;3.87;;;;;;;;;;4339096;32;316636;-85
2023/04/12 09:36:01;;;;;;;6.53;3.53;;;;;;;;;;4334806;32;315648;-85
2023/04/12 09:38:30;;;;;;;5.03;2.93;;;;;;;;;;4341635;32;416301;-85
2023/04/12 09:41:18;;;;;;;4.30;2.47;;;;;;;;;;4339716;32;316720;-84
2023/04/12 09:43:49;;;;;;;6.47;2.47;;;;;;;;;;4323700;32;389223;-83
2023/04/12 09:46:22;;;;;;;6.80;3.53;;;;;;;;;;4343261;32;317093;-79
2023/04/12 09:48:57;;;;;;;4.63;2.60;;;;;;;;;;4355399;32;317221;-78
2023/04/12 09:51:36;;;;;;;5.40;2.83;;;;;;;;;;4328021;32;317027;-81
2023/04/12 09:54:07;;;;;;;7.95;2.37;;;;;;;;;;4332612;32;316672;-85
2023/04/12 09:56:41;;;;;;;2.55;1.87;;;;;;;;;;4354858;32;316993;-82
2023/04/12 09:59:11;;;;;;;2.83;1.75;;;;;;;;;;4343968;32;317075;-83
2023/04/12 10:01:41;;;;;;;2.70;2.30;;;;;;;;;;4341914;32;316654;-85
2023/04/12 10:04:10;;;;;;;4.32;1.95;;;;;;;;;;4345869;32;316821;-83
2023/04/12 10:06:40;;;;;;;3.07;1.70;;;;;;;;;;4356962;32;315561;-86
2023/04/12 10:09:08;;;;;;;5.57;2.72;;;;;;;;;;4325856;32;316817;-83
2023/04/12 10:11:40;;;;;;;3.58;1.85;;;;;;;;;;4354183;32;316786;-82
2023/04/12 10:14:11;;;;;;;4.10;1.83;;;;;;;;;;4342138;32;316656;-83
2023/04/12 10:16:43;;;;;;;2.60;2.03;;;;;;;;;;4341446;32;315563;-80
2023/04/12 10:19:12;;;;;;;3.00;2.17;;;;;;;;;;4339428;32;316600;-79
2023/04/12 10:21:41;;;;;;;4.93;2.27;;;;;;;;;;4353505;32;317160;-81
2023/04/12 10:24:11;;;;;;;4.40;2.20;;;;;;;;;;4343053;32;316867;-83
2023/04/12 10:26:45;;;;;;;3.67;2.03;;;;;;;;;;4355239;32;317218;-80
2023/04/12 10:29:29;;;;;;;4.28;1.80;;;;;;;;;;4345827;32;317011;-78
2023/04/12 10:31:59;;;;;;;3.23;1.90;;;;;;;;;;4352383;32;353648;-80
2023/04/12 10:34:33;;;;;;;3.33;2.10;;;;;;;;;;4341708;32;387131;-80
2023/04/12 10:37:03;;;;;;;9.03;2.20;;;;;;;;;;4339949;32;316170;-82
2023/04/12 10:39:41;;;;;;;11.80;1.90;;;;;;;;;;4337594;32;317297;-80
2023/04/12 10:42:26;;;;;;;8.07;2.13;;;;;;;;;;4340650;32;317655;-81
2023/04/12 10:44:57;;;;;;;3.30;1.73;;;;;;;;;;4353616;32;316917;-80
2023/04/12 10:47:57;;;;;;;4.63;1.50;;;;;;;;;;4341239;32;419787;-80
2023/04/12 10:50:28;;;;;;;7.93;1.80;;;;;;;;;;4328139;32;330125;-79
2023/04/12 10:53:27;;;;;;;5.27;1.53;;;;;;;;;;4352625;32;316707;-81
2023/04/12 10:55:55;;;;;;;9.32;2.85;;;;;;;;;;4354346;32;317512;-81
2023/04/12 10:58:58;;;;;;;7.20;2.50;;;;;;;;;;4341195;32;316658;-81
2023/04/12 11:01:26;;;;;;;15.40;4.37;;;;;;;;;;4339877;32;420153;-81
2023/04/12 11:04:15;;;;;;;9.02;2.28;;;;;;;;;;4340774;32;317748;-80
2023/04/12 11:07:46;;;;;;;5.07;1.55;;;;;;;;;;4347677;32;387918;-79
2023/04/12 11:17:20;;;;;;;10.38;1.83;;;;;;;;;;4407100;32;20232;-79
2023/04/12 11:19:54;;;;;;;4.78;1.27;;;;;;;;;;4367581;32;417210;-81
2023/04/12 11:22:23;;;;;;;3.15;1.40;;;;;;;;;;4369251;32;316194;-81
2023/04/12 11:24:52;;;;;;;11.88;2.42;;;;;;;;;;4377626;32;316177;-81
2023/04/12 11:27:26;;;;;;;2.65;1.65;;;;;;;;;;4363792;32;317926;-80
2023/04/12 11:29:58;;;;;;;6.40;1.92;;;;;;;;;;4371047;32;316968;-81
2023/04/12 11:32:28;;;;;;;3.03;1.85;;;;;;;;;;4360971;32;316642;-82
2023/04/12 11:34:59;;;;;;;10.00;1.67;;;;;;;;;;4363760;32;317431;-82
2023/04/12 11:37:27;;;;;;;2.58;1.30;;;;;;;;;;4350586;32;421504;-81
2023/04/12 11:39:57;;;;;;;3.83;1.90;;;;;;;;;;4368868;32;316987;-81
2023/04/12 11:42:26;;;;;;;5.18;1.48;;;;;;;;;;4359072;32;419045;-81
2023/04/12 11:44:55;;;;;;;3.40;2.58;;;;;;;;;;4370921;32;316840;-81
2023/04/12 11:47:26;;;;;;;1.17;0.90;;;;;;;;;;4359121;32;316917;-81
2023/04/12 11:49:55;;;;;;;2.53;1.80;;;;;;;;;;4377303;32;315602;-81
2023/04/12 11:52:30;;;;;;;1.98;0.90;;;;;;;;;;4354070;32;336322;-80
2023/04/12 11:55:03;;;;;;;1.85;1.17;;;;;;;;;;4367707;32;316681;-81
2023/04/12 11:57:31;;;;;;;39.17;2.22;;;;;;;;;;4361971;32;416353;-80
2023/04/12 11:59:59;;;;;;;3.15;1.23;;;;;;;;;;4376230;32;317703;-78
2023/04/12 12:02:28;;;;;;;3.87;1.70;;;;;;;;;;4360735;32;416784;-80
2023/04/12 12:04:56;;;;;;;10.43;1.92;;;;;;;;;;4374720;32;316471;-81
2023/04/12 12:07:25;;;;;;;6.93;1.92;;;;;;;;;;4340436;32;354549;-82
2023/04/12 12:09:53;;;;;;;4.72;1.98;;;;;;;;;;4359644;32;316318;-80
2023/04/12 12:12:23;;;;;;;5.43;1.60;;;;;;;;;;4346519;32;317001;-82
2023/04/12 12:14:51;;;;;;;2.92;1.50;;;;;;;;;;4360106;32;316653;-81
2023/04/12 12:17:19;;;;;;;3.28;1.10;;;;;;;;;;4349995;32;317040;-83
2023/04/12 12:19:48;;;;;;;2.95;1.80;;;;;;;;;;4357856;32;316396;-84
2023/04/12 12:22:18;;;;;;;4.75;1.65;;;;;;;;;;4347006;32;316764;-84
2023/04/12 12:24:50;;;;;;;2.95;1.52;;;;;;;;;;4358183;32;316905;-78
2023/04/12 12:27:20;;;;;;;3.90;1.17;;;;;;;;;;4347744;32;316442;-80
2023/04/12 12:29:54;;;;;;;5.97;1.30;;;;;;;;;;4357734;32;316650;-79
2023/04/12 12:32:23;;;;;;;2.25;1.27;;;;;;;;;;4345937;32;343201;-82
2023/04/12 12:34:53;;;;;;;11.60;1.52;;;;;;;;;;4356610;32;316711;-81
2023/04/12 12:37:23;;;;;;;8.23;1.50;;;;;;;;;;4345721;32;318026;-80
2023/04/12 12:40:12;;;;;;;2.65;1.50;;;;;;;;;;4358701;32;316653;-79
2023/04/12 12:42:48;;;;;;;2.95;1.35;;;;;;;;;;4344358;32;416016;-79
2023/04/12 12:45:17;;;;;;;1.92;1.33;;;;;;;;;;4346829;32;315671;-82
2023/04/12 12:47:49;;;;;;;1.65;1.00;;;;;;;;;;4357810;32;317476;-76
2023/04/12 12:50:22;;;;;;;2.93;1.17;;;;;;;;;;4348221;32;317009;-81
2023/04/12 12:52:49;;;;;;;2.95;1.73;;;;;;;;;;4359460;32;339900;-80
2023/04/12 12:55:20;;;;;;;1.90;1.25;;;;;;;;;;4350012;32;317297;-83
2023/04/12 12:57:48;;;;;;;2.20;1.48;;;;;;;;;;4360232;32;316680;-84
2023/04/12 13:00:17;;;;;;;2.97;1.70;;;;;;;;;;4347699;32;317061;-84
2023/04/12 13:02:46;;;;;;;9.32;2.28;;;;;;;;;;4357365;32;316495;-83
2023/04/12 13:05:14;;;;;;;2.92;1.67;;;;;;;;;;4346087;32;316825;-82
2023/04/12 13:07:42;;;;;;;3.45;1.70;;;;;;;;;;4356693;32;316832;-81
2023/04/12 13:10:11;;;;;;;2.97;1.23;;;;;;;;;;4344495;32;316608;-81
2023/04/12 13:12:40;;;;;;;3.45;2.10;;;;;;;;;;4354449;32;338221;-81
2023/04/12 13:15:10;;;;;;;3.33;1.90;;;;;;;;;;4343330;32;316702;-81
2023/04/12 13:17:38;;;;;;;6.93;2.25;;;;;;;;;;4355074;32;316747;-81
2023/04/12 13:20:08;;;;;;;6.90;2.87;;;;;;;;;;4345849;32;316562;-82
2023/04/12 13:22:36;;;;;;;34.80;11.38;;;;;;;;;;4355642;32;319955;-81
2023/04/12 13:25:04;;;;;;;24.98;8.85;;;;;;;;;;4344494;32;319458;-82
2023/04/12 13:27:32;;;;;;;5.70;3.22;;;;;;;;;;4355582;32;317671;-81
2023/04/12 13:30:02;;;;;;;2.58;1.40;;;;;;;;;;4345409;32;316858;-81
2023/04/12 13:32:30;;;;;;;4.50;1.73;;;;;;;;;;4355680;32;316602;-82
2023/04/12 13:34:58;;;;;;;1.92;1.35;;;;;;;;;;4356387;32;316791;-80
2023/04/12 13:37:26;;;;;;;3.33;1.60;;;;;;;;;;4342926;32;419035;-81
2023/04/12 13:39:55;;;;;;;5.22;1.80;;;;;;;;;;4357265;32;316701;-82
2023/04/12 13:42:23;;;;;;;3.08;1.85;;;;;;;;;;4342807;32;316857;-81
2023/04/12 13:44:51;;;;;;;5.07;2.65;;;;;;;;;;4355401;32;316543;-83
2023/04/12 13:47:21;;;;;;;6.10;2.03;;;;;;;;;;4344673;32;335155;-84
2023/04/12 13:49:49;;;;;;;3.05;0.95;;;;;;;;;;4356702;32;316500;-83
2023/04/12 13:52:17;;;;;;;2.33;1.50;;;;;;;;;;4344640;32;343033;-84
2023/04/12 13:54:45;;;;;;;5.28;1.75;;;;;;;;;;4355846;32;317411;-84
2023/04/12 13:57:12;;;;;;;6.10;2.33;;;;;;;;;;4343916;32;316642;-84
2023/04/12 13:59:40;;;;;;;5.18;1.98;;;;;;;;;;4342128;32;316611;-83
2023/04/12 14:02:09;;;;;;;3.62;2.20;;;;;;;;;;4344528;32;316760;-80
2023/04/12 14:04:50;;;;;;;3.62;2.47;;;;;;;;;;4355129;32;316679;-83
2023/04/12 14:07:18;;;;;;;4.00;2.08;;;;;;;;;;4343807;32;316679;-82
2023/04/12 14:09:47;;;;;;;12.65;5.25;;;;;;;;;;4353655;32;349167;-82
2023/04/12 14:12:15;;;;;;;6.60;3.83;;;;;;;;;;4343207;32;317640;-81
2023/04/12 14:14:42;;;;;;;8.13;3.22;;;;;;;;;;4354145;32;356213;-82
2023/04/12 14:17:11;;;;;;;4.82;2.22;;;;;;;;;;4343229;32;316749;-81
2023/04/12 14:19:40;;;;;;;5.20;1.87;;;;;;;;;;4353966;32;316895;-82
2023/04/12 14:22:08;;;;;;;3.30;1.90;;;;;;;;;;4344685;32;318015;-82
2023/04/12 14:24:37;;;;;;;6.00;2.20;;;;;;;;;;4354330;32;316710;-77
2023/04/12 14:27:04;;;;;;;1.30;0.95;;;;;;;;;;4342485;32;316950;-78
2023/04/12 14:29:32;;;;;;;1.42;1.10;;;;;;;;;;4354382;32;317049;-79
2023/04/12 14:32:00;;;;;;;3.78;1.73;;;;;;;;;;4349585;32;316942;-80
2023/04/12 14:34:29;;;;;;;4.93;1.92;;;;;;;;;;4352929;32;316445;-80
2023/04/12 14:36:59;;;;;;;2.97;1.65;;;;;;;;;;4354021;32;316680;-79
2023/04/12 14:39:26;;;;;;;7.93;1.20;;;;;;;;;;4340518;32;415828;-80
2023/04/12 14:41:57;;;;;;;7.15;1.77;;;;;;;;;;4353906;32;316807;-80
2023/04/12 14:44:26;;;;;;;4.55;1.60;;;;;;;;;;4342255;32;416189;-79
2023/04/12 14:46:54;;;;;;;4.22;2.35;;;;;;;;;;4356361;32;316381;-80
2023/04/12 14:49:22;;;;;;;3.97;1.87;;;;;;;;;;4344653;32;316421;-81